Nearby METAR Reports

 

KIAD - Wash Dc/Dulles, Virginia, USA
Distance from station: ESE 7mi, 11km
Updated: Sun, 18-Nov-2018 1:52am EST
Mist, Clear
Mist, Clear
 Wind from calm
Wind: Calm
Temperature: 30°F , -1°C
Dew Point: 28°F , -2°C
Humidity: 93%
Barometer: 30.34 inHg , 1027.4 hPa
Summary: Mist
Clouds: Clear
Visibility: 6 miles , 10 km
2018/11/18 06:52 KIAD 180652Z 00000KT 6SM BR CLR M01/M02 A3034 RMK AO2 SLP276 I1000 T10111017
KJYO - Leesburg/Godfrey, Virginia, USA
Distance from station: N 7mi, 12km
Updated: Sun, 18-Nov-2018 2:35am EST
Clear
Clear
 Wind from W
Wind: W 3 mph , 6 km/h
Temperature: 32°F , 0°C
Dew Point: 32°F , 0°C
Humidity: 100%
Barometer: 30.34 inHg , 1027.4 hPa
Clouds: Clear
Visibility: 7 miles , 11 km
2018/11/18 07:35 KJYO 180735Z AUTO 27003KT 7SM CLR 00/00 A3034 RMK AO2
 
KHEF - Manassas Muni, Virginia, USA
Distance from station: S 17mi, 28km
Updated: Sun, 18-Nov-2018 1:59am EST
Mist, Clear
Mist, Clear
 Wind from calm
Wind: Calm
Temperature: 27°F , -3°C
Dew Point: 25°F , -4°C
Humidity: 93%
Barometer: 30.35 inHg , 1027.8 hPa
Summary: Mist
Clouds: Clear
Visibility: 3 miles , 5 km
2018/11/18 06:59 KHEF 180659Z AUTO 00000KT 3SM BR CLR M03/M04 A3035 RMK AO2 PNO $
KGAI - Gaithersburg, Maryland, USA
Distance from station: NE 26mi, 41km
Updated: Sun, 18-Nov-2018 1:56am EST
Clear
Clear
 Wind from calm
Wind: Calm
Temperature: 28°F , -2°C
Dew Point: 27°F , -3°C
Humidity: 93%
Barometer: 30.33 inHg , 1027.1 hPa
Clouds: Clear
Visibility: 7 miles , 11 km
2018/11/18 06:56 KGAI 180656Z AUTO 00000KT 7SM CLR M02/M03 A3033 RMK AO2 SLP302 T10221033 FZRANO
 
KDAA - Fort Belvoir/Dav, Virginia, USA
Distance from station: SE 27mi, 44km
Updated: Sun, 18-Nov-2018 1:56am EST
Clear
Clear
 Wind from calm
Wind: Calm
Temperature: 30°F , -1°C
Dew Point: 30°F , -1°C
Humidity: 100%
Barometer: 30.35 inHg , 1027.8 hPa
Clouds: Clear
Visibility: 7 miles , 11 km
2018/11/18 06:56 KDAA 180656Z AUTO 00000KT 7SM CLR M01/M01 A3035 RMK AO2 SLP281 T10131014 TSNO $
KHWY - Warrenton, Virginia, USA
Distance from station: SSW 27mi, 44km
Updated: Sun, 18-Nov-2018 2:35am EST
Mist, Clear
Mist, Clear
 Wind from calm
Wind: Calm
Temperature: 27°F , -3°C
Dew Point: 25°F , -4°C
Humidity: 93%
Barometer: 30.34 inHg , 1027.4 hPa
Summary: Mist
Clouds: Clear
Visibility: 4 miles , 6 km
2018/11/18 07:35 KHWY 180735Z AUTO 00000KT 4SM BR CLR M03/M04 A3034 RMK AO2 T10261042
 
KDCA - Washington/Natl, Washington D.c., USA
Distance from station: ESE 30mi, 48km
Updated: Sun, 18-Nov-2018 1:52am EST
Mostly cloudy
Mostly cloudy
 Wind from calm
Wind: Calm
Temperature: 37°F , 3°C
Dew Point: 32°F , 0°C
Humidity: 81%
Barometer: 30.35 inHg , 1027.8 hPa
Clouds: Mostly cloudy
Visibility: 9 miles , 14 km
Cloud details: Mostly cloudy 20000 ft
2018/11/18 06:52 KDCA 180652Z 00000KT 9SM BKN200 03/00 A3035 RMK AO2 SLP277 T00330000
KFDK - Frederick, Maryland, USA
Distance from station: NNE 33mi, 53km
Updated: Sun, 18-Nov-2018 2:20am EST
Mostly cloudy
Mostly cloudy
 Wind from calm
Wind: Calm
Temperature: 34°F , 1°C
Dew Point: 32°F , 0°C
Humidity: 93%
Barometer: 30.37 inHg , 1028.4 hPa
Clouds: Mostly cloudy
Visibility: 7 miles , 11 km
Cloud details: Mostly cloudy 5000 ft
2018/11/18 07:20 KFDK 180720Z AUTO 00000KT 7SM BKN050 01/00 A3037 RMK AO2
 
KOKV - Winchester Rgnl, Virginia, USA
Distance from station: WNW 33mi, 54km
Updated: Sun, 18-Nov-2018 2:35am EST
Mist, Clear
Mist, Clear
 Wind from calm
Wind: Calm
Temperature: 30°F , -1°C
Dew Point: 28°F , -2°C
Humidity: 93%
Barometer: 30.33 inHg , 1027.1 hPa
Summary: Mist
Clouds: Clear
Visibility: 5 miles , 8 km
2018/11/18 07:35 KOKV 180735Z AUTO 00000KT 5SM BR CLR M01/M02 A3033 RMK AO2
KCJR - Culpeper, Virginia, USA
Distance from station: SSW 34mi, 54km
Updated: Sun, 18-Nov-2018 2:35am EST
Clear
Clear
 Wind from calm
Wind: Calm
Temperature: 32°F , 0°C
Dew Point: 30°F , -1°C
Humidity: 93%
Barometer: 30.35 inHg , 1027.8 hPa
Clouds: Clear
Visibility: 7 miles , 11 km
2018/11/18 07:35 KCJR 180735Z AUTO 00000KT 7SM CLR 00/M01 A3035 RMK AO2 T10051012
 
KCGS - College Park, Maryland, USA
Distance from station: E 35mi, 56km
Updated: Sun, 18-Nov-2018 2:22am EST
Clear
Clear
 Wind from calm
Wind: Calm
Temperature: 30°F , -1°C
Dew Point: 28°F , -2°C
Humidity: 93%
Barometer: 30.34 inHg , 1027.4 hPa
Clouds: Clear
Visibility: 5 miles , 8 km
2018/11/18 07:22 KCGS 180722Z AUTO 00000KT 5SM CLR M01/M02 A3034 RMK AO1 T10131018
KNYG - Quantico Mcaf, Virginia, USA
Distance from station: SSE 35mi, 57km
Updated: Sun, 18-Nov-2018 1:56am EST
Clear
Clear
 Wind from WNW
Wind: WNW 6 mph , 9 km/h
Temperature: 34°F , 1°C
Wind Chill: 29°F , -2°C
Dew Point: 34°F , 1°C
Humidity: 100%
Barometer: 30.36 inHg , 1028.1 hPa
Clouds: Clear
Visibility: 10 miles , 16 km
2018/11/18 06:56 KNYG 180656Z AUTO 30005KT 10SM CLR 01/01 A3036 RMK AO2 SLP283 T00060006
 
KFRR - Fort Royal, Virginia, USA
Distance from station: W 37mi, 59km
Updated: Sun, 18-Nov-2018 2:35am EST
Clear
Clear
 
Temperature: 30°F , -1°C
Dew Point: 30°F , -1°C
Humidity: 100%
Barometer: 30.30 inHg , 1026.1 hPa
Clouds: Clear
Visibility: 7 miles , 11 km
2018/11/18 07:35 KFRR 180735Z AUTO 7SM CLR M01/M01 A3030 RMK AO1
KMRB - Martinsburg, West Virginia, USA
Distance from station: NW 38mi, 61km
Updated: Sun, 18-Nov-2018 1:53am EST
Mist, Clear
Mist, Clear
 Wind from SSW
Wind: SSW 3 mph , 6 km/h
Temperature: 30°F , -1°C
Dew Point: 28°F , -2°C
Humidity: 93%
Barometer: 30.31 inHg , 1026.4 hPa
Summary: Mist
Clouds: Clear
Visibility: 5 miles , 8 km
2018/11/18 06:53 KMRB 180653Z AUTO 20003KT 5SM BR CLR M01/M02 A3031 RMK AO2 SLP269 T10111017
 
KADW - Andrews Afb, Maryland, USA
Distance from station: ESE 39mi, 63km
Updated: Sun, 18-Nov-2018 1:56am EST
Clear
Clear
 Wind from calm
Wind: Calm
Temperature: 32°F , 0°C
Dew Point: 30°F , -1°C
Humidity: 93%
Barometer: 30.33 inHg , 1027.1 hPa
Clouds: Clear
Visibility: 10 miles , 16 km
2018/11/18 06:56 KADW 180656Z AUTO 00000KT 10SM CLR 00/M01 A3033 RMK AO2 SLP280 T10041014 $
KRMN - Stafford Regnl, Virginia, USA
Distance from station: S 39mi, 63km
Updated: Fri, 16-Nov-2018 1:30pm EST
NOT Current
Clear
Clear
 Wind from SW
Wind: SW 7 mph , 11 km/h
Temperature: 54°F , 12°C
Dew Point: 36°F , 2°C
Humidity: 51%
Barometer: 29.93 inHg , 1013.5 hPa
Clouds: Clear
Visibility: 10 miles , 16 km
2018/11/16 18:30 KRMN 161830Z AUTO 22006KT 10SM CLR 12/02 A2993 RMK AO2 T01150023
 
KFME - Fort Meade, Maryland, USA
Distance from station: ENE 44mi, 70km
Updated: Sun, 18-Nov-2018 2:21am EST
Clear
Clear
 Wind from calm
Wind: Calm
Temperature: 28°F , -2°C
Dew Point: 28°F , -2°C
Humidity: 100%
Barometer: 30.37 inHg , 1028.4 hPa
Clouds: Clear
Visibility: 7 miles , 11 km
2018/11/18 07:21 KFME 180721Z AUTO 00000KT 7SM CLR M02/M02 A3037 RMK AO1
KRSP - Nsf Thurmont, Maryland, USA
Distance from station: N 48mi, 77km
Updated: Thu, 15-Nov-2018 8:54am EST
NOT Current
Snow, Freezing, Fog, Overcast
Snow, Freezing, Fog, Overcast
 Wind from ESE
Wind: ESE 9 mph , 15 km/h, Gust: 17 mph , 28 km/h
Temperature: 23°F , -5°C
Wind Chill: 13°F , -11°C
Dew Point: 21°F , -6°C
Humidity: 93%
Barometer: 30.45 inHg , 1031.2 hPa
Summary: Snow, Freezing, Fog
Clouds: Overcast
Visibility: 1/4 mile , 0.4 km
Cloud details: Overcast 500 ft
2018/11/15 13:54 KRSP 151354Z AUTO 11008G15KT 1/4SM SN FZFG VV005 M05/M06 A3045 RMK AO2 SLP340 P0018 T10501056 $
 
KEZF - Fredericksb/Shan, Virginia, USA
Distance from station: S 48mi, 78km
Updated: Sun, 18-Nov-2018 2:35am EST
Clear
Clear
 Wind from calm
Wind: Calm
Temperature: 32°F , 0°C
Dew Point: 32°F , 0°C
Humidity: 100%
Barometer: 30.35 inHg , 1027.8 hPa
Clouds: Clear
Visibility: 7 miles , 11 km
2018/11/18 07:35 KEZF 180735Z AUTO 00000KT 7SM CLR 00/00 A3035 RMK AO2 T10031003
KBWI - Balto/Wash Intl, Maryland, USA
Distance from station: ENE 49mi, 80km
Updated: Sun, 18-Nov-2018 1:54am EST
Few Clouds
Few Clouds
 Wind from calm
Wind: Calm
Temperature: 30°F , -1°C
Dew Point: 28°F , -2°C
Humidity: 93%
Barometer: 30.33 inHg , 1027.1 hPa
Clouds: Few Clouds
Visibility: 10 miles , 16 km
Cloud details: Few Clouds 14000 ft
2018/11/18 06:54 KBWI 180654Z 00000KT 10SM FEW140 M01/M02 A3033 RMK AO2 SLP272 T10111017